Time;durP1;ratioP1;P1;durP2;ratioP2;P2;SDS_P1;SDS_P2;PMS_P1;PMS_P2;Temp;Humidity;BMP_temperature;BMP_pressure;BME280_temperature;BME280_humidity;BME280_pressure;Samples;Min_cycle;Max_cycle;Signal;HPM_P1;HPM_P2
2021/09/20 06:03:10;;;;;;;5.40;2.30;;;;;;;11.30;100.00;-19461.03;5087346;27;20702;-68
2021/09/20 06:05:38;;;;;;;4.80;1.90;;;;;;;11.36;100.00;-19462.63;5087676;28;20028;-68
2021/09/20 06:08:05;;;;;;;4.40;1.80;;;;;;;11.42;100.00;-19464.19;5079728;28;20231;-68
2021/09/20 06:10:31;;;;;;;4.33;1.80;;;;;;;11.47;100.00;-19465.50;5077613;28;20028;-69
2021/09/20 06:12:57;;;;;;;6.37;2.70;;;;;;;11.52;100.00;-19466.81;5079523;28;20111;-68
2021/09/20 06:15:22;;;;;;;5.60;2.37;;;;;;;11.55;100.00;-19467.63;5091632;28;20213;-68
2021/09/20 06:17:48;;;;;;;4.97;1.80;;;;;;;11.60;100.00;-19468.94;5087486;28;20518;-69
2021/09/20 06:20:13;;;;;;;4.17;1.97;;;;;;;11.65;100.00;-19470.13;5075211;28;20059;-68
2021/09/20 06:22:39;;;;;;;4.50;2.00;;;;;;;11.64;100.00;-19469.97;5076735;28;20044;-69
2021/09/20 06:25:06;;;;;;;5.67;2.07;;;;;;;11.69;100.00;-19471.28;5076180;28;20601;-66
2021/09/20 06:27:32;;;;;;;5.43;1.90;;;;;;;11.71;100.00;-19471.81;5076686;28;20036;-67
2021/09/20 06:29:58;;;;;;;4.47;1.60;;;;;;;11.71;100.00;-19471.81;5064041;28;20212;-67
2021/09/20 06:32:24;;;;;;;4.87;1.70;;;;;;;11.81;100.00;-19474.19;5060365;28;20435;-66
2021/09/20 06:34:49;;;;;;;3.20;1.50;;;;;;;11.78;100.00;-19473.41;5085935;28;20028;-66
2021/09/20 06:37:15;;;;;;;5.83;1.63;;;;;;;11.78;100.00;-19473.41;5063850;28;20032;-66
2021/09/20 06:39:40;;;;;;;4.53;1.80;;;;;;;11.85;100.00;-19475.25;5075403;28;20024;-66
2021/09/20 06:42:06;;;;;;;4.20;1.90;;;;;;;11.91;100.00;-19476.81;5076648;28;20411;-66
2021/09/20 06:44:35;;;;;;;3.60;1.70;;;;;;;11.94;100.00;-19477.59;5072638;28;20036;-66
2021/09/20 06:47:01;;;;;;;6.20;2.13;;;;;;;11.96;100.00;-19478.13;5071502;28;20558;-66
2021/09/20 06:49:27;;;;;;;4.67;1.73;;;;;;;12.03;100.00;-19479.97;5066786;28;20046;-66
2021/09/20 06:51:52;;;;;;;4.57;1.87;;;;;;;12.06;100.00;-19480.75;5075119;28;20024;-66
2021/09/20 06:54:19;;;;;;;6.17;1.90;;;;;;;12.08;100.00;-19481.28;5075202;28;20708;-66
2021/09/20 06:56:45;;;;;;;5.07;2.10;;;;;;;12.17;100.00;-19483.50;5077324;28;20097;-66
2021/09/20 06:59:10;;;;;;;3.77;1.60;;;;;;;12.21;100.00;-19484.69;5075846;28;20020;-66
2021/09/20 07:01:36;;;;;;;5.80;1.93;;;;;;;12.29;100.00;-19486.81;5080947;28;20040;-66
2021/09/20 07:04:02;;;;;;;4.73;1.80;;;;;;;12.35;100.00;-19488.09;5075064;28;20063;-67
2021/09/20 07:06:27;;;;;;;3.27;1.40;;;;;;;12.38;100.00;-19488.91;5082998;28;20512;-66
2021/09/20 07:08:53;;;;;;;7.00;1.90;;;;;;;12.43;100.00;-19490.34;5074696;28;20035;-66
2021/09/20 07:11:18;;;;;;;3.80;1.70;;;;;;;12.46;100.00;-19491.00;5072373;28;20469;-66
2021/09/20 07:13:44;;;;;;;2.93;1.30;;;;;;;12.61;100.00;-19494.94;5063999;28;20035;-66
2021/09/20 07:16:09;;;;;;;4.63;1.70;;;;;;;12.60;100.00;-19494.81;5073336;28;20052;-66
2021/09/20 07:18:35;;;;;;;4.67;2.00;;;;;;;12.68;100.00;-19496.78;5063951;28;20051;-66
2021/09/20 07:21:00;;;;;;;5.70;1.50;;;;;;;12.67;100.00;-19496.38;5061335;28;20496;-66
2021/09/20 07:23:26;;;;;;;3.70;1.70;;;;;;;12.81;100.00;-19500.19;5062875;28;20031;-66
2021/09/20 07:25:52;;;;;;;3.27;1.50;;;;;;;12.83;100.00;-19500.59;5061683;28;20036;-66
2021/09/20 07:28:17;;;;;;;2.87;1.50;;;;;;;12.84;100.00;-19500.97;5063324;28;20024;-66
2021/09/20 07:30:44;;;;;;;3.67;1.63;;;;;;;12.92;100.00;-19502.94;5060830;28;20384;-66
2021/09/20 07:33:10;;;;;;;6.03;1.50;;;;;;;13.08;100.00;-19507.00;5061789;28;20221;-66
2021/09/20 07:35:35;;;;;;;4.70;1.83;;;;;;;12.97;100.00;-19504.13;5047675;28;20102;-66
2021/09/20 07:38:01;;;;;;;4.47;2.17;;;;;;;13.10;100.00;-19507.53;5058876;28;20280;-66
2021/09/20 07:40:28;;;;;;;6.13;1.70;;;;;;;13.13;100.00;-19508.31;5059591;28;20093;-67
2021/09/20 07:42:54;;;;;;;3.73;1.80;;;;;;;13.24;100.00;-19511.22;5060368;28;20020;-66
2021/09/20 07:45:20;;;;;;;3.17;1.43;;;;;;;13.28;100.00;-19512.25;5061079;28;20028;-66
2021/09/20 07:47:46;;;;;;;4.90;1.77;;;;;;;13.38;100.00;-19514.75;5058328;28;20273;-66
2021/09/20 07:50:14;;;;;;;4.40;1.50;;;;;;;13.31;100.00;-19513.06;5060798;28;20107;-66
2021/09/20 07:52:41;;;;;;;2.97;1.70;;;;;;;13.42;100.00;-19515.94;5060130;28;20604;-66
2021/09/20 07:55:07;;;;;;;4.70;1.60;;;;;;;13.47;100.00;-19517.13;5060306;28;20170;-66
2021/09/20 07:57:33;;;;;;;3.90;1.60;;;;;;;13.57;100.00;-19519.75;5060648;28;20043;-66
2021/09/20 07:59:59;;;;;;;4.37;1.60;;;;;;;13.64;100.00;-19521.44;5057453;28;20024;-66
2021/09/20 08:02:24;;;;;;;5.80;1.60;;;;;;;13.80;100.00;-19525.63;5054661;28;20036;-66
2021/09/20 08:04:50;;;;;;;3.47;1.60;;;;;;;13.89;100.00;-19528.00;5060653;28;20074;-66
2021/09/20 08:07:15;;;;;;;4.60;1.57;;;;;;;13.86;100.00;-19527.22;5060317;28;20392;-66
2021/09/20 08:09:41;;;;;;;3.63;1.40;;;;;;;13.95;100.00;-19529.44;5060663;28;20024;-66
2021/09/20 08:12:07;;;;;;;3.33;1.53;;;;;;;13.94;100.00;-19529.31;5060107;28;20043;-67
2021/09/20 08:14:32;;;;;;;3.97;1.50;;;;;;;14.21;100.00;-19536.25;5059515;28;20047;-66
2021/09/20 08:16:58;;;;;;;2.97;1.40;;;;;;;14.37;100.00;-19540.31;5059486;28;20125;-66
2021/09/20 08:19:23;;;;;;;3.43;1.33;;;;;;;14.49;100.00;-19543.34;5065665;28;20492;-66
2021/09/20 08:21:49;;;;;;;3.20;1.63;;;;;;;14.72;100.00;-19549.22;5059847;28;20313;-66
2021/09/20 08:24:15;;;;;;;3.47;1.43;;;;;;;14.90;100.00;-19553.94;5050375;28;20082;-66
2021/09/20 08:26:41;;;;;;;3.30;1.40;;;;;;;15.06;100.00;-19558.13;5044348;28;20377;-66
2021/09/20 08:29:06;;;;;;;5.00;1.50;;;;;;;15.19;100.00;-19561.53;5057646;28;20020;-66
2021/09/20 08:31:32;;;;;;;3.60;1.50;;;;;;;15.37;100.00;-19565.97;5043922;28;20021;-66
2021/09/20 08:33:57;;;;;;;5.93;1.50;;;;;;;15.58;100.00;-19571.34;5056663;28;20066;-66
2021/09/20 08:36:23;;;;;;;3.93;1.43;;;;;;;15.88;100.00;-19579.06;5060000;28;20023;-66
2021/09/20 08:38:48;;;;;;;3.30;1.50;;;;;;;15.96;100.00;-19581.16;5063525;28;20035;-66
2021/09/20 08:41:15;;;;;;;7.30;1.57;;;;;;;16.01;100.00;-19582.47;5057863;28;20435;-66
2021/09/20 08:43:41;;;;;;;3.33;1.40;;;;;;;15.93;100.00;-19580.38;5059042;28;20081;-66
2021/09/20 08:46:07;;;;;;;4.03;1.40;;;;;;;15.78;100.00;-19576.56;5044640;28;20216;-66
2021/09/20 08:48:38;;;;;;;3.27;1.50;;;;;;;15.83;100.00;-19578.00;5057885;28;20094;-66
2021/09/20 08:51:04;;;;;;;2.38;1.20;;;;;;;16.09;100.00;-19584.56;5055808;28;20024;-66
2021/09/20 08:53:30;;;;;;;7.30;1.73;;;;;;;15.77;100.00;-19576.44;5064550;28;20032;-66
2021/09/20 08:55:56;;;;;;;4.13;1.50;;;;;;;15.99;100.00;-19581.94;5059463;28;20032;-67
2021/09/20 08:58:21;;;;;;;3.27;1.60;;;;;;;15.94;100.00;-19580.75;5062231;28;20053;-66
2021/09/20 09:00:47;;;;;;;4.20;1.50;;;;;;;15.87;100.00;-19578.78;5059695;28;20082;-66
2021/09/20 09:03:22;;;;;;;3.17;1.20;;;;;;;15.83;100.00;-19578.00;5059580;28;20479;-66
2021/09/20 09:05:49;;;;;;;2.90;1.20;;;;;;;15.84;100.00;-19578.16;5059723;28;20147;-66
2021/09/20 09:08:18;;;;;;;4.93;1.60;;;;;;;15.99;100.00;-19581.94;5063404;28;20626;-66
2021/09/20 09:10:58;;;;;;;2.13;1.10;;;;;;;16.20;100.00;-19587.44;5064207;28;20111;-66
2021/09/20 09:13:38;;;;;;;4.40;1.20;;;;;;;16.12;100.00;-19585.34;5059362;28;20025;-66
2021/09/20 09:16:36;;;;;;;3.10;1.30;;;;;;;16.09;100.00;-19584.56;5063380;28;20284;-66
2021/09/20 09:19:09;;;;;;;2.73;1.20;;;;;;;16.14;100.00;-19585.84;5056348;28;20080;-66
2021/09/20 09:21:46;;;;;;;2.67;1.33;;;;;;;16.28;100.00;-19589.38;5063639;28;20097;-67
2021/09/20 09:24:17;;;;;;;3.27;1.50;;;;;;;16.22;100.00;-19587.94;5056072;28;20036;-66
2021/09/20 09:27:00;;;;;;;6.50;1.10;;;;;;;16.10;100.00;-19584.81;5055741;28;20032;-66
2021/09/20 09:29:28;;;;;;;3.83;1.50;;;;;;;16.23;99.01;-19588.22;5059736;28;20183;-66
2021/09/20 09:31:56;;;;;;;3.17;1.30;;;;;;;16.29;100.00;-19589.78;5045370;28;20017;-66
2021/09/20 09:34:24;;;;;;;2.97;1.30;;;;;;;16.40;96.23;-19592.66;5058912;28;20624;-66
2021/09/20 09:36:51;;;;;;;2.70;1.37;;;;;;;16.31;91.92;-19590.31;5056708;28;20340;-66
2021/09/20 09:39:28;;;;;;;2.93;1.30;;;;;;;16.32;97.26;-19590.56;5049420;28;20154;-66
2021/09/20 09:41:54;;;;;;;3.27;1.20;;;;;;;16.49;98.68;-19594.75;5038988;28;20087;-67
2021/09/20 09:44:26;;;;;;;2.80;1.33;;;;;;;16.56;87.61;-19596.56;5058461;28;20048;-66
2021/09/20 09:46:52;;;;;;;2.17;1.03;;;;;;;16.61;85.45;-19597.88;5058945;28;20060;-67
2021/09/20 09:49:20;;;;;;;1.90;1.00;;;;;;;16.42;85.29;-19593.19;5053005;28;20091;-66
2021/09/20 09:52:17;;;;;;;3.90;1.20;;;;;;;16.53;88.40;-19595.78;5058770;28;20078;-67
2021/09/20 09:54:43;;;;;;;4.10;1.40;;;;;;;16.73;94.49;-19601.03;5054463;28;20075;-67
2021/09/20 09:57:26;;;;;;;2.70;1.13;;;;;;;16.56;78.76;-19596.56;5058658;28;20681;-67
2021/09/20 10:00:01;;;;;;;2.63;1.00;;;;;;;16.40;80.17;-19592.53;5059179;28;20601;-66
2021/09/20 10:02:31;;;;;;;3.27;1.30;;;;;;;16.69;79.75;-19600.09;5065111;28;20614;-66
2021/09/20 10:05:03;;;;;;;2.77;1.20;;;;;;;16.94;82.37;-19606.38;5058813;28;20493;-66
2021/09/20 10:07:32;;;;;;;3.28;1.38;;;;;;;16.89;78.95;-19605.06;5056543;28;20174;-66
2021/09/20 10:09:59;;;;;;;3.47;1.30;;;;;;;16.86;78.15;-19604.41;5059066;28;20032;-66
2021/09/20 10:12:27;;;;;;;6.60;1.87;;;;;;;16.89;77.79;-19605.19;5058293;28;20499;-66
2021/09/20 10:14:56;;;;;;;2.87;1.20;;;;;;;16.80;67.52;-19602.72;5051889;28;20107;-66
2021/09/20 10:17:23;;;;;;;5.10;1.17;;;;;;;16.75;66.32;-19601.53;5059971;28;20024;-66
2021/09/20 10:19:48;;;;;;;2.60;1.10;;;;;;;16.76;71.38;-19601.81;5060348;28;20089;-67
2021/09/20 10:22:15;;;;;;;2.07;1.10;;;;;;;16.49;78.95;-19594.88;5056925;28;20165;-67
2021/09/20 10:24:45;;;;;;;2.00;1.10;;;;;;;16.22;77.35;-19587.94;5049447;28;20016;-66
2021/09/20 10:27:13;;;;;;;3.47;1.20;;;;;;;16.17;81.79;-19586.66;5039780;28;20500;-67
2021/09/20 10:29:40;;;;;;;2.90;1.03;;;;;;;16.30;75.35;-19590.03;5058514;28;20165;-66
2021/09/20 10:32:07;;;;;;;2.83;1.20;;;;;;;16.25;71.35;-19588.59;5060219;28;20484;-67
2021/09/20 10:34:32;;;;;;;2.63;1.20;;;;;;;16.48;74.07;-19594.47;5072835;28;20039;-66
2021/09/20 10:37:05;;;;;;;2.90;1.07;;;;;;;16.75;69.14;-19601.41;5059606;28;20545;-66
2021/09/20 10:39:55;;;;;;;2.70;1.10;;;;;;;17.02;64.98;-19608.34;5056061;28;20550;-66
2021/09/20 10:43:00;;;;;;;2.73;1.10;;;;;;;16.96;64.72;-19606.91;5057492;28;20031;-66
2021/09/20 10:45:44;;;;;;;2.20;1.07;;;;;;;16.84;60.24;-19603.75;5013298;28;20029;-67
2021/09/20 10:48:44;;;;;;;1.67;0.80;;;;;;;16.35;55.38;-19591.34;5005597;28;20052;-67
2021/09/20 10:51:19;;;;;;;3.83;1.00;;;;;;;15.98;60.11;-19581.69;5001135;28;20136;-66
2021/09/20 10:53:45;;;;;;;2.67;1.00;;;;;;;15.98;65.16;-19581.69;5012303;28;20619;-66
2021/09/20 10:56:17;;;;;;;2.80;1.20;;;;;;;15.88;66.38;-19579.19;5026188;28;20030;-66
2021/09/20 10:59:12;;;;;;;2.88;1.00;;;;;;;15.82;67.38;-19577.63;5015356;28;20038;-67
2021/09/20 11:01:39;;;;;;;1.97;1.03;;;;;;;15.63;66.76;-19572.78;5019678;28;20136;-67
2021/09/20 11:04:30;;;;;;;2.20;0.90;;;;;;;15.52;70.45;-19569.91;5012174;28;20034;-66
2021/09/20 11:07:41;;;;;;;2.53;0.90;;;;;;;15.36;69.98;-19565.84;5010634;28;20036;-66
2021/09/20 11:10:07;;;;;;;1.87;0.90;;;;;;;15.40;68.10;-19566.75;5004332;28;20789;-66
2021/09/20 11:12:38;;;;;;;2.13;1.00;;;;;;;15.24;63.41;-19562.72;5003155;28;20068;-66
2021/09/20 11:15:12;;;;;;;1.33;0.77;;;;;;;15.14;62.58;-19560.22;5018423;28;20029;-66
2021/09/20 11:17:42;;;;;;;2.70;0.97;;;;;;;15.24;62.62;-19562.72;5014291;28;20487;-66
2021/09/20 11:20:29;;;;;;;2.50;0.90;;;;;;;15.44;62.68;-19567.81;5040932;28;20048;-66
2021/09/20 11:23:22;;;;;;;3.67;1.00;;;;;;;15.68;69.60;-19573.97;5060776;28;20037;-66
2021/09/20 11:26:07;;;;;;;;;;;;;;;16.10;65.94;-19584.81;5061661;28;20058;-66
2021/09/20 11:28:35;;;;;;;1.97;1.00;;;;;;;16.45;59.53;-19593.69;5055633;28;19940;-66
2021/09/20 11:31:00;;;;;;;2.33;1.10;;;;;;;16.49;58.00;-19594.75;5049433;28;20489;-66
2021/09/20 11:33:44;;;;;;;1.93;1.00;;;;;;;16.81;59.84;-19603.09;5053539;28;20029;-66
2021/09/20 11:36:35;;;;;;;2.20;1.00;;;;;;;16.93;56.88;-19606.25;5060999;28;20539;-67
2021/09/20 11:39:17;;;;;;;2.70;1.10;;;;;;;17.22;59.87;-19613.56;5059699;28;20541;-66
2021/09/20 11:41:46;;;;;;;2.20;1.00;;;;;;;17.04;58.88;-19608.97;5060991;28;20052;-67
2021/09/20 11:44:15;;;;;;;1.97;1.03;;;;;;;16.56;58.73;-19596.56;5061036;28;20192;-66
2021/09/20 11:46:41;;;;;;;3.17;1.20;;;;;;;16.27;60.41;-19589.25;5060488;28;20032;-67
2021/09/20 11:49:09;;;;;;;1.53;0.80;;;;;;;16.23;61.29;-19588.06;5060402;28;20337;-66
2021/09/20 11:51:36;;;;;;;2.90;1.07;;;;;;;16.27;59.71;-19589.13;5060328;28;20074;-66
2021/09/20 11:54:02;;;;;;;2.50;1.13;;;;;;;16.11;61.37;-19585.06;5057594;28;20036;-67
2021/09/20 11:56:28;;;;;;;1.90;0.90;;;;;;;16.24;61.26;-19588.47;5058706;28;20449;-67
2021/09/20 11:58:57;;;;;;;2.17;0.90;;;;;;;16.01;61.66;-19582.59;5054341;28;20337;-67
2021/09/20 12:01:26;;;;;;;1.90;0.90;;;;;;;15.91;62.02;-19579.97;5051346;28;20298;-66
2021/09/20 12:03:53;;;;;;;2.53;0.97;;;;;;;16.05;62.44;-19583.50;5056068;28;20572;-66
2021/09/20 12:06:24;;;;;;;1.87;1.00;;;;;;;15.95;62.63;-19580.88;5057153;28;20043;-66
2021/09/20 12:08:50;;;;;;;1.98;0.93;;;;;;;15.95;61.67;-19580.88;5055545;28;20082;-67
2021/09/20 12:11:22;;;;;;;3.03;1.10;;;;;;;15.94;63.64;-19580.63;5047365;28;20225;-66
2021/09/20 12:13:48;;;;;;;2.00;1.17;;;;;;;15.86;62.22;-19578.53;5048040;28;20407;-66
2021/09/20 12:16:14;;;;;;;1.83;0.90;;;;;;;15.83;62.67;-19577.88;5059842;28;20206;-67
2021/09/20 12:18:39;;;;;;;2.23;1.20;;;;;;;15.88;64.57;-19579.06;5059627;28;20021;-67
2021/09/20 12:21:08;;;;;;;1.80;1.10;;;;;;;15.87;61.66;-19578.78;5059682;28;20051;-66
2021/09/20 12:23:37;;;;;;;2.00;0.90;;;;;;;15.70;61.54;-19574.63;5050878;28;20210;-67
2021/09/20 12:26:07;;;;;;;2.73;1.00;;;;;;;15.65;62.65;-19573.31;5057711;28;20038;-67
2021/09/20 12:28:49;;;;;;;2.60;1.20;;;;;;;15.72;66.19;-19575.13;5059136;28;20109;-67
2021/09/20 12:31:19;;;;;;;1.88;0.80;;;;;;;15.72;63.28;-19575.13;5053936;28;20082;-67
2021/09/20 12:33:54;;;;;;;1.80;0.80;;;;;;;15.69;61.58;-19574.34;5054389;28;20425;-67
2021/09/20 12:36:51;;;;;;;2.30;1.00;;;;;;;15.52;62.33;-19570.03;5046681;28;20636;-67
2021/09/20 12:39:25;;;;;;;2.77;1.00;;;;;;;15.50;60.64;-19569.38;5058658;28;20127;-66
2021/09/20 12:42:01;;;;;;;2.57;0.90;;;;;;;15.50;63.17;-19569.38;5051357;28;20120;-67
2021/09/20 12:44:48;;;;;;;2.80;1.10;;;;;;;15.56;63.79;-19570.94;5046967;28;20411;-66
2021/09/20 12:47:26;;;;;;;2.20;1.00;;;;;;;15.44;63.09;-19567.81;5058973;28;20707;-67
2021/09/20 12:50:10;;;;;;;1.27;0.80;;;;;;;15.50;64.75;-19569.50;5053172;28;20043;-66
2021/09/20 12:52:42;;;;;;;4.30;1.07;;;;;;;15.46;64.41;-19568.34;5047134;28;20108;-66
2021/09/20 12:55:09;;;;;;;3.20;0.90;;;;;;;15.53;64.94;-19570.28;5048502;28;20211;-66
2021/09/20 12:57:51;;;;;;;2.27;1.20;;;;;;;15.63;67.46;-19572.78;5051047;28;20457;-66
2021/09/20 13:00:17;;;;;;;;;;;;;;;15.65;63.70;-19573.19;5053173;28;20030;-66
2021/09/20 13:02:43;;;;;;;3.20;1.20;;;;;;;15.83;64.83;-19578.00;5058528;28;20156;-66
2021/09/20 13:05:11;;;;;;;2.03;0.90;;;;;;;15.75;64.24;-19575.94;5059110;28;20032;-67
2021/09/20 13:07:37;;;;;;;2.33;0.97;;;;;;;15.84;66.63;-19578.16;5058703;28;20276;-66
2021/09/20 13:10:15;;;;;;;3.90;1.30;;;;;;;15.97;66.29;-19581.53;5058982;28;20384;-66
2021/09/20 13:13:01;;;;;;;1.93;1.00;;;;;;;16.00;62.67;-19582.19;5058269;28;20262;-66
2021/09/20 13:15:29;;;;;;;2.97;0.87;;;;;;;16.01;63.13;-19582.47;5041995;28;20095;-66
2021/09/20 13:17:59;;;;;;;3.03;1.10;;;;;;;15.92;65.38;-19580.09;5040328;28;20037;-66
2021/09/20 13:20:36;;;;;;;3.13;1.00;;;;;;;16.10;65.20;-19584.94;5055864;28;20041;-66
2021/09/20 13:23:10;;;;;;;5.33;1.40;;;;;;;16.03;64.46;-19582.97;5056099;28;20036;-67
2021/09/20 13:25:55;;;;;;;3.73;1.20;;;;;;;16.01;67.23;-19582.59;5053089;28;20036;-67
2021/09/20 13:28:34;;;;;;;5.17;1.40;;;;;;;15.95;67.62;-19580.88;5051866;28;20055;-67
2021/09/20 13:31:04;;;;;;;3.10;1.30;;;;;;;15.95;71.17;-19580.88;5043552;28;20527;-67
2021/09/20 13:33:30;;;;;;;3.83;1.40;;;;;;;16.01;69.65;-19582.47;5051753;28;20465;-68
2021/09/20 13:36:01;;;;;;;2.40;1.10;;;;;;;15.82;70.71;-19577.75;5038563;28;20025;-66
2021/09/20 13:38:32;;;;;;;2.33;1.00;;;;;;;15.89;70.72;-19579.47;5054886;28;20048;-66
2021/09/20 13:41:00;;;;;;;2.20;1.00;;;;;;;15.83;68.60;-19578.00;5058631;28;20025;-66
2021/09/20 13:43:28;;;;;;;4.33;1.13;;;;;;;15.79;63.97;-19576.97;5050751;28;20100;-66
2021/09/20 13:45:55;;;;;;;2.20;0.93;;;;;;;15.72;62.76;-19575.00;5058444;28;20016;-66
2021/09/20 13:48:21;;;;;;;2.00;1.00;;;;;;;15.80;67.04;-19577.22;5058115;28;20033;-67
2021/09/20 13:50:48;;;;;;;3.10;1.10;;;;;;;15.86;67.34;-19578.53;5045156;28;20104;-66
2021/09/20 13:53:14;;;;;;;2.03;0.90;;;;;;;15.99;67.98;-19582.06;5048511;28;20031;-66
2021/09/20 13:55:41;;;;;;;2.07;1.00;;;;;;;16.04;66.75;-19583.38;5058167;28;20021;-66
2021/09/20 13:58:07;;;;;;;4.37;1.07;;;;;;;16.19;65.49;-19587.03;5058288;28;20032;-67
2021/09/20 14:00:35;;;;;;;2.93;1.10;;;;;;;16.18;63.48;-19586.78;5058570;28;20557;-66
2021/09/20 14:03:06;;;;;;;2.57;1.27;;;;;;;16.23;67.00;-19588.22;5057257;28;20072;-67
2021/09/20 14:05:31;;;;;;;3.23;1.10;;;;;;;16.24;64.99;-19588.47;5047522;28;20048;-67
2021/09/20 14:07:57;;;;;;;2.83;1.10;;;;;;;16.23;66.16;-19588.22;5053291;28;20596;-66
2021/09/20 14:10:22;;;;;;;2.33;1.10;;;;;;;16.29;71.38;-19589.78;5054232;28;20214;-66
2021/09/20 14:12:48;;;;;;;3.10;1.00;;;;;;;16.18;75.99;-19586.91;5056448;28;20059;-67
2021/09/20 14:15:15;;;;;;;3.37;1.10;;;;;;;16.01;71.54;-19582.47;5058232;28;20021;-67
2021/09/20 14:17:44;;;;;;;3.67;1.40;;;;;;;15.85;67.26;-19578.28;5058212;28;20082;-67
2021/09/20 14:20:12;;;;;;;2.53;1.10;;;;;;;15.68;74.20;-19574.09;5058240;28;20032;-66
2021/09/20 14:22:38;;;;;;;3.33;1.10;;;;;;;15.46;74.24;-19568.34;5056964;28;20188;-67
2021/09/20 14:25:05;;;;;;;6.07;1.07;;;;;;;15.34;75.85;-19565.19;5054432;28;20641;-66
2021/09/20 14:27:31;;;;;;;1.83;0.83;;;;;;;15.24;75.44;-19562.84;5062134;28;20376;-66
2021/09/20 14:29:57;;;;;;;2.57;1.00;;;;;;;15.20;78.43;-19561.78;5062197;28;20059;-66
2021/09/20 14:32:23;;;;;;;2.67;1.40;;;;;;;15.04;77.10;-19557.59;5061925;28;20533;-66
2021/09/20 14:34:48;;;;;;;4.77;1.30;;;;;;;15.01;81.09;-19556.81;5061384;28;20021;-66
2021/09/20 14:37:15;;;;;;;4.13;1.27;;;;;;;15.00;92.56;-19556.56;5049018;28;20031;-66
2021/09/20 14:39:41;;;;;;;2.60;1.20;;;;;;;15.01;94.47;-19556.81;5058769;28;20085;-66
2021/09/20 14:42:07;;;;;;;3.37;1.30;;;;;;;15.10;100.00;-19559.16;5057705;28;20339;-67
2021/09/20 14:44:33;;;;;;;3.23;1.40;;;;;;;15.18;94.34;-19561.13;5050619;28;20643;-67
2021/09/20 14:46:58;;;;;;;2.70;1.20;;;;;;;15.14;96.32;-19560.22;5058426;28;20119;-67
2021/09/20 14:49:24;;;;;;;3.33;1.30;;;;;;;15.05;100.00;-19557.88;5058517;28;20550;-67
2021/09/20 14:51:49;;;;;;;3.20;1.10;;;;;;;15.10;100.00;-19559.16;5052961;28;20161;-67
2021/09/20 14:54:15;;;;;;;4.33;1.23;;;;;;;15.18;100.00;-19561.28;5059590;28;20217;-67
2021/09/20 14:56:40;;;;;;;4.13;1.30;;;;;;;15.29;100.00;-19563.88;5052692;28;20025;-67
2021/09/20 14:59:06;;;;;;;3.40;1.13;;;;;;;15.33;100.00;-19565.06;5058547;28;20465;-67
2021/09/20 15:01:35;;;;;;;4.00;1.30;;;;;;;15.41;100.00;-19567.03;5058263;28;20185;-67
2021/09/20 15:04:03;;;;;;;4.50;1.27;;;;;;;15.36;100.00;-19565.72;5058103;28;20028;-67
2021/09/20 15:06:36;;;;;;;3.13;1.33;;;;;;;15.34;100.00;-19565.19;5054651;28;20079;-67
2021/09/20 15:09:06;;;;;;;3.80;1.30;;;;;;;15.31;100.00;-19564.41;5057688;28;20435;-67
2021/09/20 15:11:32;;;;;;;3.00;1.10;;;;;;;15.34;100.00;-19565.19;5052598;28;20024;-67
2021/09/20 15:13:57;;;;;;;3.07;1.30;;;;;;;15.42;100.00;-19567.28;5058832;28;20035;-67
2021/09/20 15:16:27;;;;;;;3.70;1.30;;;;;;;15.47;100.00;-19568.72;5053323;28;20499;-67
2021/09/20 15:18:53;;;;;;;4.90;1.40;;;;;;;15.56;100.00;-19570.94;5060142;28;20028;-68
2021/09/20 15:21:19;;;;;;;3.50;1.53;;;;;;;15.80;100.00;-19577.22;5045091;28;20029;-67
2021/09/20 15:23:45;;;;;;;3.47;1.20;;;;;;;15.99;92.81;-19581.94;5055353;28;20192;-68
2021/09/20 15:26:11;;;;;;;2.67;1.27;;;;;;;15.94;98.71;-19580.75;5044032;28;20032;-68
2021/09/20 15:28:36;;;;;;;2.73;1.10;;;;;;;15.85;100.00;-19578.28;5053502;28;20036;-68
2021/09/20 15:31:03;;;;;;;4.00;2.00;;;;;;;15.64;100.00;-19573.06;5058455;28;20036;-67
2021/09/20 15:33:29;;;;;;;2.93;1.23;;;;;;;15.39;100.00;-19566.50;5053315;28;20258;-68
2021/09/20 15:35:56;;;;;;;3.10;1.07;;;;;;;15.25;100.00;-19563.09;5053318;28;20078;-68
2021/09/20 15:38:21;;;;;;;3.70;1.40;;;;;;;15.30;100.00;-19564.16;5050836;28;20033;-67
2021/09/20 15:40:48;;;;;;;3.53;1.30;;;;;;;15.07;100.00;-19558.38;5057669;28;20332;-68
2021/09/20 15:43:13;;;;;;;3.93;1.40;;;;;;;15.06;100.00;-19558.13;5055137;28;20048;-67
2021/09/20 15:45:39;;;;;;;5.83;1.70;;;;;;;15.15;100.00;-19560.47;5050003;28;20208;-67
2021/09/20 15:48:04;;;;;;;3.70;1.30;;;;;;;15.17;100.00;-19560.88;5056855;28;20056;-67
2021/09/20 15:50:30;;;;;;;6.07;1.80;;;;;;;14.96;100.00;-19555.50;5055340;28;20036;-67
2021/09/20 15:52:56;;;;;;;4.50;1.63;;;;;;;14.86;100.00;-19553.03;5054721;28;20029;-67
2021/09/20 15:55:22;;;;;;;4.63;1.57;;;;;;;14.81;100.00;-19551.59;5057193;28;20029;-67
2021/09/20 15:57:50;;;;;;;4.33;1.40;;;;;;;14.67;100.00;-19548.06;5055825;28;20101;-67
2021/09/20 16:00:16;;;;;;;2.70;1.30;;;;;;;14.75;100.00;-19550.00;5055659;28;20606;-67
2021/09/20 16:02:42;;;;;;;3.07;1.20;;;;;;;14.75;100.00;-19550.00;5053580;28;20060;-67
2021/09/20 16:05:08;;;;;;;3.10;1.53;;;;;;;14.50;100.00;-19543.72;5050927;28;20036;-68
2021/09/20 16:07:35;;;;;;;3.07;1.40;;;;;;;14.41;100.00;-19541.38;5051638;28;20033;-68
2021/09/20 16:10:03;;;;;;;7.63;1.50;;;;;;;14.41;100.00;-19541.38;5054507;28;20335;-67
2021/09/20 16:12:29;;;;;;;3.70;1.20;;;;;;;14.31;100.00;-19538.75;5054904;28;20424;-67
2021/09/20 16:14:55;;;;;;;2.73;1.10;;;;;;;14.33;100.00;-19539.28;5056366;28;20275;-67
2021/09/20 16:17:21;;;;;;;3.33;1.30;;;;;;;14.38;100.00;-19540.72;5055480;28;20028;-67
2021/09/20 16:19:47;;;;;;;2.67;1.20;;;;;;;14.33;100.00;-19539.41;5055727;28;20039;-67
2021/09/20 16:22:13;;;;;;;3.80;1.30;;;;;;;14.25;100.00;-19537.31;5055699;28;20071;-68
2021/09/20 16:24:40;;;;;;;4.60;1.60;;;;;;;14.16;100.00;-19534.81;5055891;28;20036;-67
2021/09/20 16:27:06;;;;;;;3.07;1.30;;;;;;;14.13;100.00;-19534.03;5057006;28;20052;-67
2021/09/20 16:29:32;;;;;;;2.67;1.20;;;;;;;14.11;100.00;-19533.50;5052346;28;20430;-68
2021/09/20 16:31:57;;;;;;;6.43;1.53;;;;;;;14.06;100.00;-19532.31;5053101;28;20028;-67
2021/09/20 16:34:23;;;;;;;3.93;1.50;;;;;;;13.95;100.00;-19529.56;5055773;28;20507;-68
2021/09/20 16:36:49;;;;;;;3.07;1.30;;;;;;;13.92;100.00;-19528.66;5054911;28;20411;-68
2021/09/20 16:39:14;;;;;;;2.80;1.20;;;;;;;13.74;100.00;-19524.06;5052139;28;20041;-68
2021/09/20 16:41:40;;;;;;;2.80;1.30;;;;;;;13.70;100.00;-19523.03;5052596;28;20184;-67
2021/09/20 16:44:06;;;;;;;3.87;1.33;;;;;;;13.59;100.00;-19520.13;5055922;28;20292;-68
2021/09/20 16:46:32;;;;;;;3.33;1.40;;;;;;;13.48;100.00;-19517.50;5055670;28;20139;-67
2021/09/20 16:48:59;;;;;;;3.27;1.50;;;;;;;13.42;100.00;-19515.81;5055818;28;20047;-68
2021/09/20 16:51:26;;;;;;;4.13;1.37;;;;;;;13.40;100.00;-19515.28;5054095;28;20042;-67
2021/09/20 16:53:51;;;;;;;3.23;1.40;;;;;;;13.34;100.00;-19513.84;5055595;28;20129;-67
2021/09/20 16:56:17;;;;;;;6.07;1.67;;;;;;;13.29;100.00;-19512.53;5053377;28;20028;-67
2021/09/20 16:58:42;;;;;;;3.80;1.60;;;;;;;13.27;100.00;-19512.00;5053527;28;20142;-67
2021/09/20 17:01:08;;;;;;;3.00;1.47;;;;;;;13.24;100.00;-19511.22;5055294;28;20532;-67
2021/09/20 17:03:33;;;;;;;3.30;1.60;;;;;;;13.16;100.00;-19509.09;5053840;28;20469;-67
2021/09/20 17:05:59;;;;;;;4.07;1.50;;;;;;;13.15;100.00;-19508.84;5054971;28;20032;-67
2021/09/20 17:08:28;;;;;;;2.90;1.30;;;;;;;13.05;100.00;-19506.22;5053827;28;20168;-67
2021/09/20 17:10:54;;;;;;;4.93;1.90;;;;;;;12.98;100.00;-19504.38;5051025;28;20123;-67
2021/09/20 17:13:20;;;;;;;3.53;1.40;;;;;;;12.94;100.00;-19503.34;5055728;28;20153;-67
2021/09/20 17:15:46;;;;;;;5.80;1.57;;;;;;;12.89;100.00;-19502.28;5054471;28;20287;-67
2021/09/20 17:18:12;;;;;;;6.77;1.80;;;;;;;12.84;100.00;-19500.84;5049947;28;20184;-67
2021/09/20 17:20:39;;;;;;;3.37;1.43;;;;;;;12.79;100.00;-19499.53;5054180;28;20043;-67
2021/09/20 17:23:05;;;;;;;12.37;1.60;;;;;;;12.76;100.00;-19498.88;5050046;28;20075;-67
2021/09/20 17:25:32;;;;;;;4.47;1.67;;;;;;;12.72;100.00;-19497.81;5054399;28;20139;-67
2021/09/20 17:27:58;;;;;;;7.83;1.87;;;;;;;12.62;100.00;-19495.19;5057739;28;20374;-67
2021/09/20 17:30:26;;;;;;;8.40;2.10;;;;;;;12.52;100.00;-19492.56;5057988;28;20111;-67
2021/09/20 17:32:52;;;;;;;5.40;1.80;;;;;;;12.47;100.00;-19491.25;5053870;28;20509;-67